sensor_id;sensor_type;location;lat;lon;timestamp;P1;durP1;ratioP1;P2;durP2;ratioP2
50010;SDS011;35899;50.352;19.390;2024-03-08T00:00:57;50.30;;;21.40;;
50010;SDS011;35899;50.352;19.390;2024-03-08T00:03:43;46.70;;;20.10;;
50010;SDS011;35899;50.352;19.390;2024-03-08T00:06:09;44.80;;;19.50;;
50010;SDS011;35899;50.352;19.390;2024-03-08T00:08:36;42.80;;;19.00;;
50010;SDS011;35899;50.352;19.390;2024-03-08T00:11:03;51.10;;;21.90;;
50010;SDS011;35899;50.352;19.390;2024-03-08T00:13:29;44.50;;;19.90;;
50010;SDS011;35899;50.352;19.390;2024-03-08T00:15:56;50.60;;;19.90;;
50010;SDS011;35899;50.352;19.390;2024-03-08T00:18:23;45.90;;;19.90;;
50010;SDS011;35899;50.352;19.390;2024-03-08T00:20:49;48.90;;;19.60;;
50010;SDS011;35899;50.352;19.390;2024-03-08T00:23:16;46.60;;;19.70;;
50010;SDS011;35899;50.352;19.390;2024-03-08T00:25:43;44.20;;;19.30;;
50010;SDS011;35899;50.352;19.390;2024-03-08T00:28:09;47.90;;;20.20;;
50010;SDS011;35899;50.352;19.390;2024-03-08T00:30:36;49.20;;;20.00;;
50010;SDS011;35899;50.352;19.390;2024-03-08T00:33:02;47.10;;;21.10;;
50010;SDS011;35899;50.352;19.390;2024-03-08T00:35:29;52.70;;;20.60;;
50010;SDS011;35899;50.352;19.390;2024-03-08T00:37:55;48.80;;;20.60;;
50010;SDS011;35899;50.352;19.390;2024-03-08T00:40:22;44.90;;;18.00;;
50010;SDS011;35899;50.352;19.390;2024-03-08T00:42:48;52.00;;;20.40;;
50010;SDS011;35899;50.352;19.390;2024-03-08T00:45:15;46.30;;;19.30;;
50010;SDS011;35899;50.352;19.390;2024-03-08T00:47:42;45.90;;;19.30;;
50010;SDS011;35899;50.352;19.390;2024-03-08T00:50:09;44.70;;;18.60;;
50010;SDS011;35899;50.352;19.390;2024-03-08T00:52:36;47.90;;;19.80;;
50010;SDS011;35899;50.352;19.390;2024-03-08T00:55:03;48.30;;;19.10;;
50010;SDS011;35899;50.352;19.390;2024-03-08T00:57:30;47.30;;;19.40;;
50010;SDS011;35899;50.352;19.390;2024-03-08T00:59:57;45.70;;;18.50;;
50010;SDS011;35899;50.352;19.390;2024-03-08T01:02:23;48.50;;;18.90;;
50010;SDS011;35899;50.352;19.390;2024-03-08T01:04:50;49.20;;;18.70;;
50010;SDS011;35899;50.352;19.390;2024-03-08T01:07:17;43.80;;;18.70;;
50010;SDS011;35899;50.352;19.390;2024-03-08T01:09:43;43.30;;;19.20;;
50010;SDS011;35899;50.352;19.390;2024-03-08T01:12:10;45.10;;;18.20;;
50010;SDS011;35899;50.352;19.390;2024-03-08T01:14:37;44.50;;;19.00;;
50010;SDS011;35899;50.352;19.390;2024-03-08T01:17:03;51.30;;;19.90;;
50010;SDS011;35899;50.352;19.390;2024-03-08T01:19:30;49.00;;;19.70;;
50010;SDS011;35899;50.352;19.390;2024-03-08T01:21:56;46.80;;;19.20;;
50010;SDS011;35899;50.352;19.390;2024-03-08T01:24:23;46.20;;;18.90;;
50010;SDS011;35899;50.352;19.390;2024-03-08T01:26:50;50.00;;;19.70;;
50010;SDS011;35899;50.352;19.390;2024-03-08T01:29:16;44.00;;;18.10;;
50010;SDS011;35899;50.352;19.390;2024-03-08T01:31:43;43.90;;;18.90;;
50010;SDS011;35899;50.352;19.390;2024-03-08T01:34:09;43.20;;;19.40;;
50010;SDS011;35899;50.352;19.390;2024-03-08T01:36:36;52.60;;;20.70;;
50010;SDS011;35899;50.352;19.390;2024-03-08T01:39:03;46.10;;;21.10;;
50010;SDS011;35899;50.352;19.390;2024-03-08T01:41:29;47.30;;;19.40;;
50010;SDS011;35899;50.352;19.390;2024-03-08T01:43:56;44.50;;;19.80;;
50010;SDS011;35899;50.352;19.390;2024-03-08T01:46:23;41.00;;;18.70;;
50010;SDS011;35899;50.352;19.390;2024-03-08T01:48:50;41.50;;;18.70;;
50010;SDS011;35899;50.352;19.390;2024-03-08T01:51:16;41.40;;;17.40;;
50010;SDS011;35899;50.352;19.390;2024-03-08T01:53:43;38.40;;;18.10;;
50010;SDS011;35899;50.352;19.390;2024-03-08T01:56:13;41.60;;;17.60;;
50010;SDS011;35899;50.352;19.390;2024-03-08T01:58:43;40.10;;;17.50;;
50010;SDS011;35899;50.352;19.390;2024-03-08T02:01:11;37.50;;;17.80;;
50010;SDS011;35899;50.352;19.390;2024-03-08T02:03:38;37.30;;;17.00;;
50010;SDS011;35899;50.352;19.390;2024-03-08T02:06:05;38.30;;;17.80;;
50010;SDS011;35899;50.352;19.390;2024-03-08T02:08:31;41.30;;;17.30;;
50010;SDS011;35899;50.352;19.390;2024-03-08T02:10:58;35.90;;;16.20;;
50010;SDS011;35899;50.352;19.390;2024-03-08T02:13:25;40.70;;;17.80;;
50010;SDS011;35899;50.352;19.390;2024-03-08T02:15:58;38.90;;;17.90;;
50010;SDS011;35899;50.352;19.390;2024-03-08T02:18:26;35.40;;;16.40;;
50010;SDS011;35899;50.352;19.390;2024-03-08T02:20:58;37.60;;;17.40;;
50010;SDS011;35899;50.352;19.390;2024-03-08T02:23:26;36.90;;;16.50;;
50010;SDS011;35899;50.352;19.390;2024-03-08T02:25:53;38.50;;;16.30;;
50010;SDS011;35899;50.352;19.390;2024-03-08T02:28:22;39.00;;;17.30;;
50010;SDS011;35899;50.352;19.390;2024-03-08T02:30:50;37.20;;;15.70;;
50010;SDS011;35899;50.352;19.390;2024-03-08T02:33:17;33.90;;;16.60;;
50010;SDS011;35899;50.352;19.390;2024-03-08T02:35:45;38.60;;;17.60;;
50010;SDS011;35899;50.352;19.390;2024-03-08T02:38:13;37.30;;;16.20;;
50010;SDS011;35899;50.352;19.390;2024-03-08T02:40:48;34.00;;;15.00;;
50010;SDS011;35899;50.352;19.390;2024-03-08T02:43:16;34.90;;;15.50;;
50010;SDS011;35899;50.352;19.390;2024-03-08T02:45:44;36.00;;;16.60;;
50010;SDS011;35899;50.352;19.390;2024-03-08T02:48:11;36.70;;;16.90;;
50010;SDS011;35899;50.352;19.390;2024-03-08T02:50:38;36.30;;;16.00;;
50010;SDS011;35899;50.352;19.390;2024-03-08T02:53:05;36.30;;;15.90;;
50010;SDS011;35899;50.352;19.390;2024-03-08T02:55:32;33.80;;;15.60;;
50010;SDS011;35899;50.352;19.390;2024-03-08T02:57:59;32.60;;;15.80;;
50010;SDS011;35899;50.352;19.390;2024-03-08T03:00:25;35.90;;;16.90;;
50010;SDS011;35899;50.352;19.390;2024-03-08T03:02:52;39.90;;;17.10;;
50010;SDS011;35899;50.352;19.390;2024-03-08T03:05:19;37.50;;;16.20;;
50010;SDS011;35899;50.352;19.390;2024-03-08T03:07:46;40.10;;;17.00;;
50010;SDS011;35899;50.352;19.390;2024-03-08T03:10:13;38.50;;;17.30;;
50010;SDS011;35899;50.352;19.390;2024-03-08T03:12:39;36.80;;;16.40;;
50010;SDS011;35899;50.352;19.390;2024-03-08T03:15:06;33.50;;;16.00;;
50010;SDS011;35899;50.352;19.390;2024-03-08T03:17:32;37.60;;;17.30;;
50010;SDS011;35899;50.352;19.390;2024-03-08T03:19:59;38.20;;;17.10;;
50010;SDS011;35899;50.352;19.390;2024-03-08T03:22:26;41.40;;;18.10;;
50010;SDS011;35899;50.352;19.390;2024-03-08T03:24:52;36.50;;;16.40;;
50010;SDS011;35899;50.352;19.390;2024-03-08T03:27:19;40.40;;;18.60;;
50010;SDS011;35899;50.352;19.390;2024-03-08T03:29:45;41.20;;;19.10;;
50010;SDS011;35899;50.352;19.390;2024-03-08T03:32:13;37.80;;;17.80;;
50010;SDS011;35899;50.352;19.390;2024-03-08T03:34:39;42.70;;;19.80;;
50010;SDS011;35899;50.352;19.390;2024-03-08T03:37:06;39.70;;;19.00;;
50010;SDS011;35899;50.352;19.390;2024-03-08T03:39:33;38.10;;;18.40;;
50010;SDS011;35899;50.352;19.390;2024-03-08T03:42:00;39.80;;;17.30;;
50010;SDS011;35899;50.352;19.390;2024-03-08T03:44:27;35.90;;;17.30;;
50010;SDS011;35899;50.352;19.390;2024-03-08T03:46:55;31.90;;;15.70;;
50010;SDS011;35899;50.352;19.390;2024-03-08T03:49:21;32.70;;;16.50;;
50010;SDS011;35899;50.352;19.390;2024-03-08T03:51:48;32.80;;;15.60;;
50010;SDS011;35899;50.352;19.390;2024-03-08T03:54:14;37.10;;;17.80;;
50010;SDS011;35899;50.352;19.390;2024-03-08T03:56:41;34.50;;;16.60;;
50010;SDS011;35899;50.352;19.390;2024-03-08T03:59:07;31.80;;;15.50;;
50010;SDS011;35899;50.352;19.390;2024-03-08T04:01:34;34.50;;;17.70;;
50010;SDS011;35899;50.352;19.390;2024-03-08T04:04:05;33.10;;;16.90;;
50010;SDS011;35899;50.352;19.390;2024-03-08T04:06:31;34.10;;;16.90;;
50010;SDS011;35899;50.352;19.390;2024-03-08T04:08:58;34.70;;;16.90;;
50010;SDS011;35899;50.352;19.390;2024-03-08T04:11:24;33.20;;;16.60;;
50010;SDS011;35899;50.352;19.390;2024-03-08T04:13:51;32.00;;;15.20;;
50010;SDS011;35899;50.352;19.390;2024-03-08T04:16:18;30.30;;;15.10;;
50010;SDS011;35899;50.352;19.390;2024-03-08T04:18:44;32.10;;;15.30;;
50010;SDS011;35899;50.352;19.390;2024-03-08T04:21:11;30.70;;;15.40;;
50010;SDS011;35899;50.352;19.390;2024-03-08T04:23:38;34.70;;;17.40;;
50010;SDS011;35899;50.352;19.390;2024-03-08T04:26:04;35.00;;;17.50;;
50010;SDS011;35899;50.352;19.390;2024-03-08T04:28:31;31.60;;;15.90;;
50010;SDS011;35899;50.352;19.390;2024-03-08T04:30:58;32.10;;;15.90;;
50010;SDS011;35899;50.352;19.390;2024-03-08T04:33:25;33.70;;;16.40;;
50010;SDS011;35899;50.352;19.390;2024-03-08T04:35:51;29.70;;;15.00;;
50010;SDS011;35899;50.352;19.390;2024-03-08T04:38:18;30.60;;;15.30;;
50010;SDS011;35899;50.352;19.390;2024-03-08T04:40:44;33.50;;;16.60;;
50010;SDS011;35899;50.352;19.390;2024-03-08T04:43:11;32.00;;;15.50;;
50010;SDS011;35899;50.352;19.390;2024-03-08T04:45:38;31.00;;;15.20;;
50010;SDS011;35899;50.352;19.390;2024-03-08T04:48:04;32.50;;;15.70;;
50010;SDS011;35899;50.352;19.390;2024-03-08T04:50:31;32.40;;;15.60;;
50010;SDS011;35899;50.352;19.390;2024-03-08T04:52:58;33.90;;;15.80;;
50010;SDS011;35899;50.352;19.390;2024-03-08T04:55:24;33.60;;;15.40;;
50010;SDS011;35899;50.352;19.390;2024-03-08T04:57:51;33.00;;;15.90;;
50010;SDS011;35899;50.352;19.390;2024-03-08T05:00:17;28.00;;;14.80;;
50010;SDS011;35899;50.352;19.390;2024-03-08T05:02:44;31.30;;;15.50;;
50010;SDS011;35899;50.352;19.390;2024-03-08T05:05:11;36.70;;;17.40;;
50010;SDS011;35899;50.352;19.390;2024-03-08T05:07:40;37.90;;;16.00;;
50010;SDS011;35899;50.352;19.390;2024-03-08T05:10:07;33.80;;;17.20;;
50010;SDS011;35899;50.352;19.390;2024-03-08T05:12:34;33.00;;;16.80;;
50010;SDS011;35899;50.352;19.390;2024-03-08T05:15:00;31.90;;;16.10;;
50010;SDS011;35899;50.352;19.390;2024-03-08T05:17:27;31.40;;;16.00;;
50010;SDS011;35899;50.352;19.390;2024-03-08T05:19:54;35.20;;;17.10;;
50010;SDS011;35899;50.352;19.390;2024-03-08T05:22:20;33.10;;;15.40;;
50010;SDS011;35899;50.352;19.390;2024-03-08T05:24:47;33.30;;;16.60;;
50010;SDS011;35899;50.352;19.390;2024-03-08T05:27:13;31.40;;;16.10;;
50010;SDS011;35899;50.352;19.390;2024-03-08T05:29:40;32.40;;;16.00;;
50010;SDS011;35899;50.352;19.390;2024-03-08T05:32:07;33.30;;;16.80;;
50010;SDS011;35899;50.352;19.390;2024-03-08T05:34:33;32.30;;;16.90;;
50010;SDS011;35899;50.352;19.390;2024-03-08T05:37:00;32.60;;;16.80;;
50010;SDS011;35899;50.352;19.390;2024-03-08T05:39:28;35.70;;;16.10;;
50010;SDS011;35899;50.352;19.390;2024-03-08T05:41:55;32.50;;;16.00;;
50010;SDS011;35899;50.352;19.390;2024-03-08T05:44:22;34.10;;;16.90;;
50010;SDS011;35899;50.352;19.390;2024-03-08T05:46:48;34.60;;;17.10;;
50010;SDS011;35899;50.352;19.390;2024-03-08T05:49:15;30.20;;;15.50;;
50010;SDS011;35899;50.352;19.390;2024-03-08T05:51:42;32.00;;;15.30;;
50010;SDS011;35899;50.352;19.390;2024-03-08T05:54:11;32.90;;;14.70;;
50010;SDS011;35899;50.352;19.390;2024-03-08T05:56:43;32.90;;;16.40;;
50010;SDS011;35899;50.352;19.390;2024-03-08T05:59:10;31.70;;;16.60;;
50010;SDS011;35899;50.352;19.390;2024-03-08T06:01:37;31.50;;;15.90;;
50010;SDS011;35899;50.352;19.390;2024-03-08T06:04:03;31.50;;;16.00;;
50010;SDS011;35899;50.352;19.390;2024-03-08T06:06:31;31.30;;;15.40;;
50010;SDS011;35899;50.352;19.390;2024-03-08T06:08:58;34.40;;;15.90;;
50010;SDS011;35899;50.352;19.390;2024-03-08T06:11:25;38.40;;;17.60;;
50010;SDS011;35899;50.352;19.390;2024-03-08T06:13:52;31.40;;;15.50;;
50010;SDS011;35899;50.352;19.390;2024-03-08T06:16:19;30.50;;;14.80;;
50010;SDS011;35899;50.352;19.390;2024-03-08T06:18:45;31.90;;;14.70;;
50010;SDS011;35899;50.352;19.390;2024-03-08T06:21:12;29.00;;;14.40;;
50010;SDS011;35899;50.352;19.390;2024-03-08T06:23:39;29.10;;;14.60;;
50010;SDS011;35899;50.352;19.390;2024-03-08T06:26:06;28.40;;;14.30;;
50010;SDS011;35899;50.352;19.390;2024-03-08T06:28:34;31.90;;;15.80;;
50010;SDS011;35899;50.352;19.390;2024-03-08T06:31:01;29.20;;;14.70;;
50010;SDS011;35899;50.352;19.390;2024-03-08T06:33:29;29.10;;;15.40;;
50010;SDS011;35899;50.352;19.390;2024-03-08T06:35:56;29.20;;;14.80;;
50010;SDS011;35899;50.352;19.390;2024-03-08T06:38:23;31.50;;;15.00;;
50010;SDS011;35899;50.352;19.390;2024-03-08T06:40:50;27.60;;;13.40;;
50010;SDS011;35899;50.352;19.390;2024-03-08T06:43:18;25.10;;;13.50;;
50010;SDS011;35899;50.352;19.390;2024-03-08T06:45:45;25.80;;;14.00;;
50010;SDS011;35899;50.352;19.390;2024-03-08T06:48:12;27.40;;;14.30;;
50010;SDS011;35899;50.352;19.390;2024-03-08T06:50:38;28.20;;;15.00;;
50010;SDS011;35899;50.352;19.390;2024-03-08T06:53:05;30.60;;;15.30;;
50010;SDS011;35899;50.352;19.390;2024-03-08T06:55:32;24.50;;;13.40;;
50010;SDS011;35899;50.352;19.390;2024-03-08T06:57:58;27.00;;;13.70;;
50010;SDS011;35899;50.352;19.390;2024-03-08T07:00:25;27.40;;;14.80;;
50010;SDS011;35899;50.352;19.390;2024-03-08T07:02:52;26.60;;;14.20;;
50010;SDS011;35899;50.352;19.390;2024-03-08T07:05:19;25.60;;;14.40;;
50010;SDS011;35899;50.352;19.390;2024-03-08T07:07:46;27.90;;;14.10;;
50010;SDS011;35899;50.352;19.390;2024-03-08T07:10:12;26.10;;;13.70;;
50010;SDS011;35899;50.352;19.390;2024-03-08T07:12:39;24.70;;;13.30;;
50010;SDS011;35899;50.352;19.390;2024-03-08T07:15:06;26.40;;;14.00;;
50010;SDS011;35899;50.352;19.390;2024-03-08T07:17:33;25.80;;;13.90;;
50010;SDS011;35899;50.352;19.390;2024-03-08T07:20:00;25.40;;;13.60;;
50010;SDS011;35899;50.352;19.390;2024-03-08T07:22:27;23.90;;;13.50;;
50010;SDS011;35899;50.352;19.390;2024-03-08T07:24:54;24.90;;;13.60;;
50010;SDS011;35899;50.352;19.390;2024-03-08T07:27:20;25.40;;;13.40;;
50010;SDS011;35899;50.352;19.390;2024-03-08T07:29:47;26.10;;;13.90;;
50010;SDS011;35899;50.352;19.390;2024-03-08T07:32:13;24.20;;;13.20;;
50010;SDS011;35899;50.352;19.390;2024-03-08T07:34:40;26.10;;;13.30;;
50010;SDS011;35899;50.352;19.390;2024-03-08T07:37:06;25.60;;;13.60;;
50010;SDS011;35899;50.352;19.390;2024-03-08T07:39:34;25.90;;;14.60;;
50010;SDS011;35899;50.352;19.390;2024-03-08T07:42:01;24.90;;;14.40;;
50010;SDS011;35899;50.352;19.390;2024-03-08T07:44:27;26.50;;;13.90;;
50010;SDS011;35899;50.352;19.390;2024-03-08T07:46:54;21.30;;;12.40;;
50010;SDS011;35899;50.352;19.390;2024-03-08T07:49:24;22.80;;;13.80;;
50010;SDS011;35899;50.352;19.390;2024-03-08T07:51:51;25.00;;;13.50;;
50010;SDS011;35899;50.352;19.390;2024-03-08T07:54:18;25.20;;;12.80;;
50010;SDS011;35899;50.352;19.390;2024-03-08T07:56:45;23.60;;;12.50;;
50010;SDS011;35899;50.352;19.390;2024-03-08T07:59:11;26.60;;;14.10;;
50010;SDS011;35899;50.352;19.390;2024-03-08T08:01:38;24.80;;;14.40;;
50010;SDS011;35899;50.352;19.390;2024-03-08T08:04:05;23.70;;;12.80;;
50010;SDS011;35899;50.352;19.390;2024-03-08T08:06:31;25.60;;;13.70;;
50010;SDS011;35899;50.352;19.390;2024-03-08T08:08:58;25.70;;;13.60;;
50010;SDS011;35899;50.352;19.390;2024-03-08T08:11:26;21.40;;;12.70;;
50010;SDS011;35899;50.352;19.390;2024-03-08T08:13:53;24.60;;;14.10;;
50010;SDS011;35899;50.352;19.390;2024-03-08T08:16:20;22.50;;;13.40;;
50010;SDS011;35899;50.352;19.390;2024-03-08T08:18:49;24.50;;;14.10;;
50010;SDS011;35899;50.352;19.390;2024-03-08T08:21:15;24.60;;;14.20;;
50010;SDS011;35899;50.352;19.390;2024-03-08T08:23:42;23.30;;;13.70;;
50010;SDS011;35899;50.352;19.390;2024-03-08T08:26:10;24.40;;;13.90;;
50010;SDS011;35899;50.352;19.390;2024-03-08T08:28:36;22.10;;;12.90;;
50010;SDS011;35899;50.352;19.390;2024-03-08T08:31:03;24.30;;;13.60;;
50010;SDS011;35899;50.352;19.390;2024-03-08T08:33:29;20.70;;;12.40;;
50010;SDS011;35899;50.352;19.390;2024-03-08T08:35:56;25.00;;;13.20;;
50010;SDS011;35899;50.352;19.390;2024-03-08T08:38:23;23.90;;;13.30;;
50010;SDS011;35899;50.352;19.390;2024-03-08T08:40:50;23.80;;;13.40;;
50010;SDS011;35899;50.352;19.390;2024-03-08T08:43:16;24.70;;;13.00;;
50010;SDS011;35899;50.352;19.390;2024-03-08T08:45:43;20.70;;;12.60;;
50010;SDS011;35899;50.352;19.390;2024-03-08T08:48:10;22.50;;;12.90;;
50010;SDS011;35899;50.352;19.390;2024-03-08T08:50:36;22.80;;;13.30;;
50010;SDS011;35899;50.352;19.390;2024-03-08T08:53:03;25.20;;;13.00;;
50010;SDS011;35899;50.352;19.390;2024-03-08T08:55:30;23.00;;;12.80;;
50010;SDS011;35899;50.352;19.390;2024-03-08T08:57:56;23.30;;;13.30;;
50010;SDS011;35899;50.352;19.390;2024-03-08T09:00:24;23.30;;;12.80;;
50010;SDS011;35899;50.352;19.390;2024-03-08T09:02:50;23.30;;;12.90;;
50010;SDS011;35899;50.352;19.390;2024-03-08T09:05:17;21.80;;;12.50;;
50010;SDS011;35899;50.352;19.390;2024-03-08T09:07:44;25.40;;;13.00;;
50010;SDS011;35899;50.352;19.390;2024-03-08T09:10:10;20.20;;;11.40;;
50010;SDS011;35899;50.352;19.390;2024-03-08T09:12:40;20.20;;;10.90;;
50010;SDS011;35899;50.352;19.390;2024-03-08T09:15:07;23.60;;;12.20;;
50010;SDS011;35899;50.352;19.390;2024-03-08T09:17:37;21.60;;;12.60;;
50010;SDS011;35899;50.352;19.390;2024-03-08T09:20:04;23.90;;;12.50;;
50010;SDS011;35899;50.352;19.390;2024-03-08T09:22:32;21.30;;;11.30;;
50010;SDS011;35899;50.352;19.390;2024-03-08T09:24:58;19.90;;;11.40;;
50010;SDS011;35899;50.352;19.390;2024-03-08T09:27:25;21.20;;;12.20;;
50010;SDS011;35899;50.352;19.390;2024-03-08T09:29:52;23.80;;;12.80;;
50010;SDS011;35899;50.352;19.390;2024-03-08T09:32:19;22.10;;;12.20;;
50010;SDS011;35899;50.352;19.390;2024-03-08T09:34:45;22.60;;;12.00;;
50010;SDS011;35899;50.352;19.390;2024-03-08T09:37:12;24.40;;;13.20;;
50010;SDS011;35899;50.352;19.390;2024-03-08T09:39:39;22.40;;;12.30;;
50010;SDS011;35899;50.352;19.390;2024-03-08T09:42:05;24.60;;;12.70;;
50010;SDS011;35899;50.352;19.390;2024-03-08T09:44:32;21.80;;;12.90;;
50010;SDS011;35899;50.352;19.390;2024-03-08T09:46:59;21.40;;;12.40;;
50010;SDS011;35899;50.352;19.390;2024-03-08T09:49:27;22.80;;;12.40;;
50010;SDS011;35899;50.352;19.390;2024-03-08T09:51:54;19.20;;;12.10;;
50010;SDS011;35899;50.352;19.390;2024-03-08T09:54:21;20.60;;;12.60;;
50010;SDS011;35899;50.352;19.390;2024-03-08T09:56:51;18.60;;;12.30;;
50010;SDS011;35899;50.352;19.390;2024-03-08T09:59:18;18.40;;;12.30;;
50010;SDS011;35899;50.352;19.390;2024-03-08T10:01:45;18.40;;;12.20;;
50010;SDS011;35899;50.352;19.390;2024-03-08T10:04:11;18.90;;;11.40;;
50010;SDS011;35899;50.352;19.390;2024-03-08T10:06:39;19.60;;;12.30;;
50010;SDS011;35899;50.352;19.390;2024-03-08T10:09:06;16.20;;;11.30;;
50010;SDS011;35899;50.352;19.390;2024-03-08T10:11:32;18.70;;;12.20;;
50010;SDS011;35899;50.352;19.390;2024-03-08T10:13:59;17.30;;;11.60;;
50010;SDS011;35899;50.352;19.390;2024-03-08T10:16:29;17.40;;;11.40;;
50010;SDS011;35899;50.352;19.390;2024-03-08T10:18:56;18.50;;;11.00;;
50010;SDS011;35899;50.352;19.390;2024-03-08T10:21:23;16.00;;;10.80;;
50010;SDS011;35899;50.352;19.390;2024-03-08T10:23:50;16.70;;;10.60;;
50010;SDS011;35899;50.352;19.390;2024-03-08T10:26:18;17.00;;;11.60;;
50010;SDS011;35899;50.352;19.390;2024-03-08T10:28:45;17.40;;;10.90;;
50010;SDS011;35899;50.352;19.390;2024-03-08T10:31:13;14.50;;;10.80;;
50010;SDS011;35899;50.352;19.390;2024-03-08T10:33:45;14.20;;;10.70;;
50010;SDS011;35899;50.352;19.390;2024-03-08T10:36:13;16.00;;;11.70;;
50010;SDS011;35899;50.352;19.390;2024-03-08T10:38:41;15.30;;;11.00;;
50010;SDS011;35899;50.352;19.390;2024-03-08T10:41:09;14.40;;;10.40;;
50010;SDS011;35899;50.352;19.390;2024-03-08T10:49:18;15.50;;;11.20;;
50010;SDS011;35899;50.352;19.390;2024-03-08T10:51:52;12.90;;;9.50;;
50010;SDS011;35899;50.352;19.390;2024-03-08T10:54:19;13.60;;;9.60;;
50010;SDS011;35899;50.352;19.390;2024-03-08T10:56:47;13.50;;;10.20;;
50010;SDS011;35899;50.352;19.390;2024-03-08T10:59:14;11.40;;;9.60;;
50010;SDS011;35899;50.352;19.390;2024-03-08T11:01:42;14.30;;;10.90;;
50010;SDS011;35899;50.352;19.390;2024-03-08T11:04:08;13.70;;;9.80;;
50010;SDS011;35899;50.352;19.390;2024-03-08T11:09:02;14.00;;;10.70;;
50010;SDS011;35899;50.352;19.390;2024-03-08T11:11:34;12.90;;;10.50;;
50010;SDS011;35899;50.352;19.390;2024-03-08T11:14:02;12.20;;;10.00;;
50010;SDS011;35899;50.352;19.390;2024-03-08T11:21:34;12.00;;;9.40;;
50010;SDS011;35899;50.352;19.390;2024-03-08T11:24:07;12.90;;;9.40;;
50010;SDS011;35899;50.352;19.390;2024-03-08T11:26:36;10.80;;;8.70;;
50010;SDS011;35899;50.352;19.390;2024-03-08T11:34:41;12.10;;;10.20;;
50010;SDS011;35899;50.352;19.390;2024-03-08T11:37:27;12.20;;;9.80;;
50010;SDS011;35899;50.352;19.390;2024-03-08T11:39:54;11.20;;;8.90;;
50010;SDS011;35899;50.352;19.390;2024-03-08T11:42:21;12.20;;;9.80;;
50010;SDS011;35899;50.352;19.390;2024-03-08T11:44:48;10.30;;;8.90;;
50010;SDS011;35899;50.352;19.390;2024-03-08T11:47:17;10.60;;;9.50;;
50010;SDS011;35899;50.352;19.390;2024-03-08T11:49:44;10.70;;;8.80;;
50010;SDS011;35899;50.352;19.390;2024-03-08T11:52:12;9.70;;;8.60;;
50010;SDS011;35899;50.352;19.390;2024-03-08T11:54:40;12.10;;;9.60;;
50010;SDS011;35899;50.352;19.390;2024-03-08T11:57:09;11.10;;;9.70;;
50010;SDS011;35899;50.352;19.390;2024-03-08T11:59:36;11.50;;;9.70;;
50010;SDS011;35899;50.352;19.390;2024-03-08T12:02:03;11.30;;;9.60;;
50010;SDS011;35899;50.352;19.390;2024-03-08T12:04:32;12.10;;;10.10;;
50010;SDS011;35899;50.352;19.390;2024-03-08T12:07:00;11.90;;;10.20;;
50010;SDS011;35899;50.352;19.390;2024-03-08T12:09:27;11.40;;;10.20;;
50010;SDS011;35899;50.352;19.390;2024-03-08T12:11:55;10.60;;;8.40;;
50010;SDS011;35899;50.352;19.390;2024-03-08T12:14:22;11.80;;;10.10;;
50010;SDS011;35899;50.352;19.390;2024-03-08T12:16:50;11.80;;;9.30;;
50010;SDS011;35899;50.352;19.390;2024-03-08T12:19:17;10.70;;;9.60;;
50010;SDS011;35899;50.352;19.390;2024-03-08T12:21:44;10.40;;;9.20;;
50010;SDS011;35899;50.352;19.390;2024-03-08T12:24:12;11.60;;;10.40;;
50010;SDS011;35899;50.352;19.390;2024-03-08T12:26:42;10.00;;;8.90;;
50010;SDS011;35899;50.352;19.390;2024-03-08T12:29:15;10.10;;;9.10;;
50010;SDS011;35899;50.352;19.390;2024-03-08T12:31:46;10.00;;;9.00;;
50010;SDS011;35899;50.352;19.390;2024-03-08T12:34:17;10.30;;;9.10;;
50010;SDS011;35899;50.352;19.390;2024-03-08T12:36:47;11.20;;;10.10;;
50010;SDS011;35899;50.352;19.390;2024-03-08T12:39:18;11.60;;;9.50;;
50010;SDS011;35899;50.352;19.390;2024-03-08T12:41:45;9.70;;;8.70;;
50010;SDS011;35899;50.352;19.390;2024-03-08T12:44:12;10.90;;;8.90;;
50010;SDS011;35899;50.352;19.390;2024-03-08T12:46:39;11.70;;;9.80;;
50010;SDS011;35899;50.352;19.390;2024-03-08T12:49:07;10.50;;;9.50;;
50010;SDS011;35899;50.352;19.390;2024-03-08T12:51:34;9.60;;;8.70;;
50010;SDS011;35899;50.352;19.390;2024-03-08T12:54:01;9.40;;;8.50;;
50010;SDS011;35899;50.352;19.390;2024-03-08T12:56:30;10.80;;;8.80;;
50010;SDS011;35899;50.352;19.390;2024-03-08T12:59:01;10.10;;;8.80;;
50010;SDS011;35899;50.352;19.390;2024-03-08T13:01:28;10.40;;;9.40;;
50010;SDS011;35899;50.352;19.390;2024-03-08T13:03:55;10.10;;;9.10;;
50010;SDS011;35899;50.352;19.390;2024-03-08T13:06:22;9.80;;;8.90;;
50010;SDS011;35899;50.352;19.390;2024-03-08T13:08:50;9.80;;;8.90;;
50010;SDS011;35899;50.352;19.390;2024-03-08T13:11:17;9.90;;;8.90;;
50010;SDS011;35899;50.352;19.390;2024-03-08T13:13:45;9.30;;;8.40;;
50010;SDS011;35899;50.352;19.390;2024-03-08T13:16:13;8.90;;;8.10;;
50010;SDS011;35899;50.352;19.390;2024-03-08T13:18:41;8.40;;;7.40;;
50010;SDS011;35899;50.352;19.390;2024-03-08T13:21:08;9.00;;;8.00;;
50010;SDS011;35899;50.352;19.390;2024-03-08T13:23:39;8.80;;;8.00;;
50010;SDS011;35899;50.352;19.390;2024-03-08T13:26:07;9.10;;;8.20;;
50010;SDS011;35899;50.352;19.390;2024-03-08T13:28:34;8.60;;;7.80;;
50010;SDS011;35899;50.352;19.390;2024-03-08T13:31:01;9.70;;;8.80;;
50010;SDS011;35899;50.352;19.390;2024-03-08T13:33:31;9.20;;;8.30;;
50010;SDS011;35899;50.352;19.390;2024-03-08T13:36:01;8.80;;;7.90;;
50010;SDS011;35899;50.352;19.390;2024-03-08T13:38:33;9.80;;;8.90;;
50010;SDS011;35899;50.352;19.390;2024-03-08T13:40:59;9.50;;;8.50;;
50010;SDS011;35899;50.352;19.390;2024-03-08T13:43:26;9.60;;;8.60;;
50010;SDS011;35899;50.352;19.390;2024-03-08T13:45:53;11.00;;;8.40;;
50010;SDS011;35899;50.352;19.390;2024-03-08T13:48:19;10.00;;;8.90;;
50010;SDS011;35899;50.352;19.390;2024-03-08T13:50:46;9.60;;;8.60;;
50010;SDS011;35899;50.352;19.390;2024-03-08T13:53:12;9.50;;;8.40;;
50010;SDS011;35899;50.352;19.390;2024-03-08T13:55:39;12.50;;;9.30;;
50010;SDS011;35899;50.352;19.390;2024-03-08T13:58:09;11.40;;;9.00;;
50010;SDS011;35899;50.352;19.390;2024-03-08T14:00:36;14.80;;;10.40;;
50010;SDS011;35899;50.352;19.390;2024-03-08T14:03:03;15.80;;;10.00;;
50010;SDS011;35899;50.352;19.390;2024-03-08T14:05:29;16.90;;;10.50;;
50010;SDS011;35899;50.352;19.390;2024-03-08T14:07:56;14.60;;;9.60;;
50010;SDS011;35899;50.352;19.390;2024-03-08T14:10:23;15.40;;;10.30;;
50010;SDS011;35899;50.352;19.390;2024-03-08T14:12:50;17.60;;;10.70;;
50010;SDS011;35899;50.352;19.390;2024-03-08T14:15:19;14.30;;;9.70;;
50010;SDS011;35899;50.352;19.390;2024-03-08T14:17:51;16.60;;;10.00;;
50010;SDS011;35899;50.352;19.390;2024-03-08T14:22:45;16.30;;;10.50;;
50010;SDS011;35899;50.352;19.390;2024-03-08T14:25:12;17.40;;;10.70;;
50010;SDS011;35899;50.352;19.390;2024-03-08T14:27:39;15.70;;;10.10;;
50010;SDS011;35899;50.352;19.390;2024-03-08T14:30:06;17.50;;;10.40;;
50010;SDS011;35899;50.352;19.390;2024-03-08T14:32:33;17.10;;;11.00;;